This is the latest recevied weather packets stored in our database for station/object KD4WXI. If no packets are shown the sender has not sent any weather packets the latest 10 day(s).
| Time | Temp. | Humidity | Pressure | Rain* | Wind** | Luminosity | Snow |
|---|---|---|---|---|---|---|---|
| 1777131016 | 27.22° C | 45% | 1011 hPa | 0 mm | - | 628 W/m² | - |
| 1777130712 | 27.78° C | 45% | 1011 hPa | 0 mm | - | 620 W/m² | - |
| 1777130409 | 27.22° C | 45% | 1011 hPa | 0 mm | - | 601 W/m² | - |
| 1777130105 | 27.78° C | 48% | 1011.1 hPa | 0 mm | - | 590 W/m² | - |
| 1777129801 | 26.67° C | 49% | 1010.9 hPa | 0 mm | - | 614 W/m² | - |
| 1777129495 | 26.11° C | 52% | 1011 hPa | 0 mm | - | 548 W/m² | - |
| 1777129194 | 26.67° C | 50% | 1010.9 hPa | 0 mm | - | 538 W/m² | - |
| 1777128890 | 26.11° C | 56% | 1010.8 hPa | 0 mm | - | 582 W/m² | - |
| 1777128587 | 26.67° C | 57% | 1011.1 hPa | 0 mm | - | 503 W/m² | - |
| 1777128284 | 26.67° C | 55% | 1011 hPa | 0 mm | - | 518 W/m² | - |
| 1777127982 | 26.11° C | 56% | 1011.1 hPa | 0 mm | - | 406 W/m² | - |
| 1777127680 | 25.56° C | 57% | 1011 hPa | 0 mm | - | 450 W/m² | - |
| 1777127377 | 24.44° C | 55% | 1010.9 hPa | 0 mm | - | 483 W/m² | - |
| 1777127073 | 24.44° C | 62% | 1010.7 hPa | 0 mm | - | 412 W/m² | - |
| 1777126768 | 23.89° C | 60% | 1010.8 hPa | 0 mm | - | 385 W/m² | - |
| 1777126465 | 23.89° C | 60% | 1010.7 hPa | 0 mm | - | 328 W/m² | - |
| 1777126160 | 23.89° C | 60% | 1011 hPa | 0 mm | - | 326 W/m² | - |
| 1777125856 | 23.89° C | 60% | 1010.7 hPa | 0 mm | - | 365 W/m² | - |
| 1777125553 | 23.89° C | 62% | 1010.9 hPa | 0 mm | - | 318 W/m² | - |
| 1777125248 | 22.78° C | 65% | 1010.8 hPa | 0 mm | - | 371 W/m² | - |
| 1777124943 | 22.78° C | 64% | 1010.9 hPa | 0 mm | - | 259 W/m² | - |
* Rain latest hour (hover to see other rain measurements)
** Current wind speed in m/s (hover to see current wind gust speed)